createdAt,value
2018-12-22T00:00:40.810Z,7.30
2018-12-22T00:01:40.759Z,8.20
2018-12-22T00:02:40.727Z,6.40
2018-12-22T00:03:40.647Z,5.60
2018-12-22T00:04:40.596Z,5.70
2018-12-22T00:05:40.544Z,6.70
2018-12-22T00:06:40.491Z,6.80
2018-12-22T00:07:40.458Z,6.60
2018-12-22T00:08:40.387Z,6.10
2018-12-22T00:09:40.335Z,6.80
2018-12-22T00:10:40.277Z,6.20
2018-12-22T00:11:40.222Z,5.90
2018-12-22T00:12:40.195Z,5.90
2018-12-22T00:13:40.118Z,7.20
2018-12-22T00:14:40.063Z,5.50
2018-12-22T00:15:40.008Z,6.40
2018-12-22T00:16:39.956Z,5.90
2018-12-22T00:17:39.931Z,5.70
2018-12-22T00:18:39.883Z,6.10
2018-12-22T00:19:39.796Z,6.00
2018-12-22T00:20:39.746Z,7.10
2018-12-22T00:21:39.693Z,8.10
2018-12-22T00:22:39.635Z,7.30
2018-12-22T00:23:39.606Z,6.60
2018-12-22T00:24:39.530Z,7.30
2018-12-22T00:25:39.474Z,7.10
2018-12-22T00:26:39.420Z,6.80
2018-12-22T00:27:39.373Z,9.00
2018-12-22T00:28:39.341Z,8.00
2018-12-22T00:29:39.262Z,7.40
2018-12-22T00:30:39.207Z,7.60
2018-12-22T00:31:39.155Z,8.20
2018-12-22T00:32:39.115Z,7.20
2018-12-22T00:33:39.077Z,7.50
2018-12-22T00:34:38.997Z,7.40
2018-12-22T00:35:38.942Z,6.90
2018-12-22T00:36:38.890Z,7.40
2018-12-22T00:37:38.836Z,7.90
2018-12-22T00:38:38.803Z,7.10
2018-12-22T00:39:38.728Z,8.30
2018-12-22T00:40:38.677Z,8.10
2018-12-22T00:41:38.626Z,7.10
2018-12-22T00:42:38.570Z,6.50
2018-12-22T00:43:38.539Z,6.40
2018-12-22T00:44:38.463Z,7.20
2018-12-22T00:45:38.412Z,7.80
2018-12-22T00:46:38.354Z,7.70
2018-12-22T00:47:38.307Z,8.60
2018-12-22T00:48:38.275Z,8.00
2018-12-22T00:49:38.184Z,8.70
2018-12-22T00:50:38.144Z,7.40
2018-12-22T00:51:38.088Z,8.80
2018-12-22T00:52:38.037Z,9.40
2018-12-22T00:53:38.005Z,9.20
2018-12-22T00:54:37.933Z,8.00
2018-12-22T00:55:37.875Z,9.00
2018-12-22T00:56:37.824Z,8.90
2018-12-22T00:57:37.769Z,10.40
2018-12-22T00:58:37.745Z,8.70
2018-12-22T00:59:37.663Z,8.50
2018-12-22T01:00:37.695Z,9.00
2018-12-22T01:01:37.559Z,9.00
2018-12-22T01:02:37.505Z,7.60
2018-12-22T01:03:37.476Z,10.00
2018-12-22T01:04:37.401Z,10.10
2018-12-22T01:05:37.339Z,10.00
2018-12-22T01:06:37.291Z,8.50
2018-12-22T01:07:37.235Z,9.40
2018-12-22T01:08:37.207Z,10.80
2018-12-22T01:09:37.129Z,9.80
2018-12-22T01:10:37.077Z,10.30
2018-12-22T01:11:37.022Z,10.10
2018-12-22T01:12:36.976Z,11.10
2018-12-22T01:13:36.952Z,9.60
2018-12-22T01:14:36.863Z,11.70
2018-12-22T01:15:36.812Z,10.70
2018-12-22T01:16:36.768Z,10.70
2018-12-22T01:17:36.705Z,10.00
2018-12-22T01:18:36.677Z,9.10
2018-12-22T01:19:36.622Z,10.20
2018-12-22T01:20:36.542Z,10.40
2018-12-22T01:21:36.491Z,11.20
2018-12-22T01:22:36.440Z,10.70
2018-12-22T01:23:36.376Z,10.50
2018-12-22T01:24:36.353Z,10.30
2018-12-22T01:25:36.278Z,11.30
2018-12-22T01:26:36.225Z,11.40
2018-12-22T01:27:36.175Z,12.30
2018-12-22T01:28:39.576Z,9.50
2018-12-22T01:29:36.089Z,10.60
2018-12-22T01:30:36.009Z,10.80
2018-12-22T01:31:35.960Z,10.90
2018-12-22T01:32:35.906Z,11.30
2018-12-22T01:33:35.863Z,11.00
2018-12-22T01:34:35.827Z,11.40
2018-12-22T01:35:35.744Z,10.30
2018-12-22T01:36:35.693Z,11.40
2018-12-22T01:37:35.642Z,12.90
2018-12-22T01:38:35.586Z,12.90
2018-12-22T01:39:35.559Z,13.40
2018-12-22T01:40:35.485Z,12.90
2018-12-22T01:41:35.428Z,12.10
2018-12-22T01:42:35.373Z,10.90
2018-12-22T01:43:35.321Z,14.40
2018-12-22T01:44:35.291Z,12.60
2018-12-22T01:45:35.218Z,11.20
2018-12-22T01:46:35.164Z,12.90
2018-12-22T01:47:35.107Z,12.70
2018-12-22T01:48:35.053Z,12.80
2018-12-22T01:49:35.025Z,14.20
2018-12-22T01:50:34.956Z,14.80
2018-12-22T01:51:34.897Z,14.20
2018-12-22T01:52:34.839Z,12.40
2018-12-22T01:53:34.794Z,12.50
2018-12-22T01:54:34.751Z,14.20
2018-12-22T01:55:34.680Z,13.60
2018-12-22T01:56:34.627Z,16.00
2018-12-22T01:57:34.574Z,14.80
2018-12-22T01:58:34.523Z,15.00
2018-12-22T01:59:34.491Z,14.40
2018-12-22T02:00:34.412Z,14.00
2018-12-22T02:01:34.360Z,14.10
2018-12-22T02:02:34.309Z,14.40
2018-12-22T02:03:34.253Z,15.40
2018-12-22T02:04:34.226Z,14.30
2018-12-22T02:05:34.148Z,14.20
2018-12-22T02:06:34.091Z,17.30
2018-12-22T02:07:34.040Z,17.40
2018-12-22T02:08:33.983Z,14.60
2018-12-22T02:09:33.961Z,15.40
2018-12-22T02:10:33.879Z,13.10
2018-12-22T02:11:33.826Z,15.40
2018-12-22T02:12:33.775Z,12.90
2018-12-22T02:13:33.721Z,13.60
2018-12-22T02:14:33.692Z,15.00
2018-12-22T02:15:33.615Z,15.60
2018-12-22T02:16:33.557Z,14.60
2018-12-22T02:17:33.505Z,16.00
2018-12-22T02:18:33.450Z,16.40
2018-12-22T02:19:33.426Z,15.10
2018-12-22T02:20:33.348Z,15.60
2018-12-22T02:21:33.297Z,15.40
2018-12-22T02:22:33.238Z,14.20
2018-12-22T02:23:33.185Z,18.80
2018-12-22T02:24:33.152Z,16.00
2018-12-22T02:25:33.079Z,14.10
2018-12-22T02:26:33.025Z,14.40
2018-12-22T02:27:32.972Z,17.30
2018-12-22T02:28:32.923Z,16.00
2018-12-22T02:29:32.895Z,17.10
2018-12-22T02:30:32.811Z,15.90
2018-12-22T02:31:32.784Z,16.30
2018-12-22T02:32:32.811Z,17.40
2018-12-22T02:33:32.654Z,16.80
2018-12-22T02:34:32.596Z,18.30
2018-12-22T02:35:32.569Z,19.50
2018-12-22T02:36:32.500Z,18.60
2018-12-22T02:37:32.435Z,20.40
2018-12-22T02:38:32.384Z,18.80
2018-12-22T02:39:32.332Z,18.50
2018-12-22T02:40:32.322Z,20.80
2018-12-22T02:41:32.228Z,17.60
2018-12-22T02:42:32.169Z,17.50
2018-12-22T02:43:32.113Z,16.60
2018-12-22T02:44:32.063Z,20.20
2018-12-22T02:45:32.034Z,18.00
2018-12-22T02:46:31.958Z,19.60
2018-12-22T02:47:31.900Z,17.80
2018-12-22T02:48:31.849Z,18.00
2018-12-22T02:49:31.793Z,17.00
2018-12-22T02:50:31.762Z,20.20
2018-12-22T02:51:31.686Z,19.70
2018-12-22T02:52:31.629Z,17.40
2018-12-22T02:53:31.584Z,17.40
2018-12-22T02:54:31.529Z,16.80
2018-12-22T02:55:31.496Z,16.00
2018-12-22T02:56:31.418Z,17.40
2018-12-22T02:57:31.368Z,15.80
2018-12-22T02:58:31.323Z,18.10
2018-12-22T02:59:31.357Z,19.00
2018-12-22T03:00:31.236Z,17.00
2018-12-22T03:01:31.160Z,17.40
2018-12-22T03:02:31.098Z,18.10
2018-12-22T03:03:31.045Z,17.90
2018-12-22T03:04:30.988Z,17.60
2018-12-22T03:05:30.959Z,15.70
2018-12-22T03:06:30.882Z,18.20
2018-12-22T03:07:30.832Z,15.90
2018-12-22T03:08:30.774Z,17.20
2018-12-22T03:09:30.723Z,19.60
2018-12-22T03:10:30.705Z,17.30
2018-12-22T03:11:30.612Z,17.70
2018-12-22T03:12:30.558Z,16.30
2018-12-22T03:13:30.502Z,17.30
2018-12-22T03:14:30.460Z,15.70
2018-12-22T03:15:30.536Z,16.10
2018-12-22T03:16:30.343Z,17.20
2018-12-22T03:17:30.293Z,18.10
2018-12-22T03:18:30.238Z,14.60
2018-12-22T03:19:30.184Z,18.10
2018-12-22T03:20:30.152Z,18.40
2018-12-22T03:21:30.074Z,13.80
2018-12-22T03:22:30.022Z,18.10
2018-12-22T03:23:29.965Z,18.60
2018-12-22T03:24:29.918Z,15.00
2018-12-22T03:25:29.881Z,17.00
2018-12-22T03:26:29.799Z,13.70
2018-12-22T03:27:29.748Z,17.20
2018-12-22T03:28:29.698Z,16.80
2018-12-22T03:29:29.643Z,16.20
2018-12-22T03:30:29.617Z,14.20
2018-12-22T03:31:29.536Z,15.70
2018-12-22T03:32:29.484Z,13.80
2018-12-22T03:33:29.429Z,17.20
2018-12-22T03:34:29.375Z,17.00
2018-12-22T03:35:29.341Z,13.80
2018-12-22T03:36:29.266Z,16.00
2018-12-22T03:37:29.211Z,17.40
2018-12-22T03:38:29.156Z,16.20
2018-12-22T03:39:29.103Z,15.70
2018-12-22T03:40:29.074Z,14.60
2018-12-22T03:41:28.993Z,14.90
2018-12-22T03:42:28.952Z,17.10
2018-12-22T03:43:28.886Z,16.30
2018-12-22T03:44:28.836Z,14.90
2018-12-22T03:45:28.803Z,13.20
2018-12-22T03:46:28.731Z,15.80
2018-12-22T03:47:28.670Z,18.00
2018-12-22T03:48:28.615Z,22.20
2018-12-22T03:49:28.563Z,18.70
2018-12-22T03:50:28.543Z,18.10
2018-12-22T03:51:28.455Z,18.20
2018-12-22T03:52:28.413Z,19.20
2018-12-22T03:53:28.348Z,17.70
2018-12-22T03:54:28.403Z,19.00
2018-12-22T03:55:28.267Z,25.10
2018-12-22T03:56:28.194Z,20.60
2018-12-22T03:57:28.129Z,22.30
2018-12-22T03:58:28.075Z,20.70
2018-12-22T03:59:28.021Z,19.70
2018-12-22T04:00:27.992Z,20.50
2018-12-22T04:01:27.914Z,20.40
2018-12-22T04:02:27.877Z,15.80
2018-12-22T04:03:27.814Z,19.80
2018-12-22T04:04:27.754Z,24.00
2018-12-22T04:05:27.699Z,19.20
2018-12-22T04:06:27.667Z,21.60
2018-12-22T04:07:27.587Z,19.50
2018-12-22T04:08:27.544Z,31.10
2018-12-22T04:09:27.483Z,24.60
2018-12-22T04:10:27.430Z,20.00
2018-12-22T04:11:27.397Z,29.60
2018-12-22T04:12:27.323Z,23.60
2018-12-22T04:13:27.267Z,23.00
2018-12-22T04:14:27.211Z,24.10
2018-12-22T04:15:27.162Z,23.90
2018-12-22T04:16:27.136Z,21.80
2018-12-22T04:17:27.053Z,27.00
2018-12-22T04:18:26.997Z,33.00
2018-12-22T04:19:26.943Z,25.90
2018-12-22T04:20:26.892Z,26.40
2018-12-22T04:21:26.857Z,27.20
2018-12-22T04:22:26.869Z,35.90
2018-12-22T04:23:26.730Z,26.50
2018-12-22T04:24:26.680Z,22.70
2018-12-22T04:25:26.626Z,37.80
2018-12-22T04:26:26.590Z,38.60
2018-12-22T04:27:26.516Z,46.10
2018-12-22T04:28:26.458Z,20.60
2018-12-22T04:29:33.727Z,23.00
2018-12-22T04:30:26.351Z,26.80
2018-12-22T04:31:26.325Z,24.40
2018-12-22T04:32:26.247Z,24.80
2018-12-22T04:33:26.195Z,29.40
2018-12-22T04:34:26.135Z,26.30
2018-12-22T04:35:26.085Z,28.40
2018-12-22T04:36:26.062Z,27.60
2018-12-22T04:37:25.981Z,27.40
2018-12-22T04:38:25.927Z,26.80
2018-12-22T04:39:25.882Z,27.30
2018-12-22T04:40:25.818Z,26.10
2018-12-22T04:41:25.790Z,32.00
2018-12-22T04:42:25.711Z,26.50
2018-12-22T04:43:25.657Z,27.80
2018-12-22T04:44:25.609Z,29.30
2018-12-22T04:45:25.549Z,26.60
2018-12-22T04:46:25.520Z,27.50
2018-12-22T04:47:25.441Z,27.50
2018-12-22T04:48:25.394Z,29.70
2018-12-22T04:49:25.335Z,31.90
2018-12-22T04:50:25.283Z,33.00
2018-12-22T04:51:25.309Z,30.90
2018-12-22T04:52:25.173Z,30.20
2018-12-22T04:53:25.123Z,31.80
2018-12-22T04:54:25.068Z,30.60
2018-12-22T04:55:25.028Z,29.50
2018-12-22T04:56:24.987Z,29.50
2018-12-22T04:57:24.914Z,29.50
2018-12-22T04:58:24.852Z,34.60
2018-12-22T04:59:24.801Z,29.10
2018-12-22T05:00:24.747Z,27.90
2018-12-22T05:01:24.718Z,37.10
2018-12-22T05:02:24.639Z,39.40
2018-12-22T05:03:24.589Z,39.10
2018-12-22T05:04:24.540Z,35.10
2018-12-22T05:05:24.476Z,32.70
2018-12-22T05:06:24.450Z,33.90
2018-12-22T05:07:24.376Z,36.60
2018-12-22T05:08:24.319Z,38.00
2018-12-22T05:09:24.264Z,37.90
2018-12-22T05:10:24.210Z,45.80
2018-12-22T05:11:24.180Z,44.90
2018-12-22T05:12:24.101Z,44.70
2018-12-22T05:13:24.050Z,37.60
2018-12-22T05:14:23.995Z,42.90
2018-12-22T05:15:23.948Z,40.20
2018-12-22T05:16:23.911Z,41.60
2018-12-22T05:17:23.837Z,39.60
2018-12-22T05:18:23.780Z,43.50
2018-12-22T05:19:23.725Z,43.80
2018-12-22T05:20:23.683Z,40.10
2018-12-22T05:21:23.643Z,45.00
2018-12-22T05:22:23.569Z,44.10
2018-12-22T05:23:23.512Z,40.10
2018-12-22T05:24:23.459Z,52.40
2018-12-22T05:25:23.409Z,43.40
2018-12-22T05:26:23.376Z,36.20
2018-12-22T05:27:23.306Z,35.10
2018-12-22T05:28:23.242Z,34.70
2018-12-22T05:29:23.210Z,37.50
2018-12-22T05:30:23.141Z,39.70
2018-12-22T05:31:23.075Z,36.70
2018-12-22T05:32:23.049Z,40.70
2018-12-22T05:33:22.973Z,40.90
2018-12-22T05:34:22.917Z,35.80
2018-12-22T05:35:22.866Z,33.10
2018-12-22T05:36:22.810Z,40.20
2018-12-22T05:37:22.786Z,29.60
2018-12-22T05:38:22.704Z,43.00
2018-12-22T05:39:22.651Z,34.10
2018-12-22T05:40:22.598Z,34.20
2018-12-22T05:41:22.541Z,35.70
2018-12-22T05:42:22.513Z,37.20
2018-12-22T05:43:22.436Z,32.20
2018-12-22T05:44:22.385Z,50.00
2018-12-22T05:45:22.327Z,27.30
2018-12-22T05:46:22.274Z,24.70
2018-12-22T05:47:22.256Z,31.30
2018-12-22T05:48:22.167Z,29.20
2018-12-22T05:49:22.112Z,25.30
2018-12-22T05:50:22.058Z,19.50
2018-12-22T05:51:22.003Z,17.40
2018-12-22T05:52:21.981Z,22.50
2018-12-22T05:53:21.896Z,24.90
2018-12-22T05:54:21.840Z,25.10
2018-12-22T05:55:21.789Z,19.10
2018-12-22T05:56:21.738Z,21.40
2018-12-22T05:57:21.708Z,20.80
2018-12-22T05:58:21.628Z,24.40
2018-12-22T05:59:21.565Z,16.70
2018-12-22T06:00:21.522Z,23.40
2018-12-22T06:01:21.471Z,18.90
2018-12-22T06:02:21.441Z,23.10
2018-12-22T06:03:21.362Z,23.30
2018-12-22T06:04:21.307Z,20.50
2018-12-22T06:05:21.256Z,19.50
2018-12-22T06:06:21.200Z,18.90
2018-12-22T06:07:21.173Z,22.40
2018-12-22T06:08:21.093Z,17.80
2018-12-22T06:09:21.042Z,19.60
2018-12-22T06:10:20.987Z,18.70
2018-12-22T06:11:20.932Z,17.70
2018-12-22T06:12:20.905Z,16.40
2018-12-22T06:13:20.824Z,18.40
2018-12-22T06:14:20.769Z,15.80
2018-12-22T06:15:20.719Z,19.80
2018-12-22T06:16:20.670Z,20.80
2018-12-22T06:17:20.635Z,18.90
2018-12-22T06:18:20.555Z,17.50
2018-12-22T06:19:20.508Z,15.20
2018-12-22T06:20:21.751Z,16.40
2018-12-22T06:21:20.411Z,15.20
2018-12-22T06:22:20.363Z,10.10
2018-12-22T06:23:20.291Z,12.70
2018-12-22T06:24:20.235Z,13.70
2018-12-22T06:25:20.182Z,12.00
2018-12-22T06:26:20.131Z,11.90
2018-12-22T06:27:20.096Z,11.80
2018-12-22T06:28:20.018Z,11.30
2018-12-22T06:29:19.962Z,15.00
2018-12-22T06:30:19.911Z,11.10
2018-12-22T06:31:19.952Z,10.30
2018-12-22T06:32:19.828Z,6.70
2018-12-22T06:33:19.749Z,10.30
2018-12-22T06:34:19.697Z,6.70
2018-12-22T06:35:19.643Z,7.30
2018-12-22T06:36:19.586Z,4.00
2018-12-22T06:37:19.559Z,5.70
2018-12-22T06:38:19.484Z,4.90
2018-12-22T06:39:19.420Z,3.60
2018-12-22T06:40:19.373Z,3.00
2018-12-22T06:41:19.317Z,5.70
2018-12-22T06:42:19.302Z,3.60
2018-12-22T06:43:19.211Z,5.50
2018-12-22T06:44:19.163Z,3.70
2018-12-22T06:45:19.100Z,1.40
2018-12-22T06:46:19.045Z,5.40
2018-12-22T06:47:19.029Z,1.60
2018-12-22T06:48:18.938Z,2.70
2018-12-22T06:49:18.883Z,0.30
2018-12-22T06:50:18.827Z,0.10
2018-12-22T06:51:18.775Z,0.00
2018-12-22T06:52:18.743Z,0.10
2018-12-22T06:53:18.669Z,0.10
2018-12-22T06:54:18.606Z,0.10
2018-12-22T06:55:18.558Z,0.10
2018-12-22T06:56:18.502Z,0.40
2018-12-22T06:57:18.484Z,0.10
2018-12-22T06:58:18.396Z,0.10
2018-12-22T06:59:18.340Z,0.10
2018-12-22T07:00:18.284Z,0.10
2018-12-22T07:01:18.229Z,0.10
2018-12-22T07:02:18.174Z,0.10
2018-12-22T07:03:18.143Z,0.10
2018-12-22T07:04:18.107Z,0.10
2018-12-22T07:05:18.014Z,0.10
2018-12-22T07:06:17.967Z,0.10
2018-12-22T07:07:17.902Z,0.10
2018-12-22T07:08:17.876Z,0.10
2018-12-22T07:09:17.799Z,0.10
2018-12-22T07:10:17.747Z,0.10
2018-12-22T07:11:17.683Z,0.10
2018-12-22T07:12:17.631Z,0.10
2018-12-22T07:13:17.618Z,0.10
2018-12-22T07:14:17.523Z,0.00
2018-12-22T07:15:17.465Z,0.10
2018-12-22T07:16:17.414Z,0.10
2018-12-22T07:17:17.359Z,0.10
2018-12-22T07:18:17.327Z,0.10
2018-12-22T07:19:17.247Z,0.10
2018-12-22T07:20:17.192Z,0.10
2018-12-22T07:21:17.141Z,0.10
2018-12-22T07:22:17.085Z,0.10
2018-12-22T07:23:17.050Z,0.10
2018-12-22T07:24:16.977Z,0.10
2018-12-22T07:25:16.919Z,0.10
2018-12-22T07:26:16.867Z,0.10
2018-12-22T07:27:16.809Z,0.10
2018-12-22T07:28:16.778Z,0.10
2018-12-22T07:29:16.704Z,0.10
2018-12-22T07:30:16.652Z,0.10
2018-12-22T07:31:16.592Z,0.10
2018-12-22T07:32:16.543Z,0.10
2018-12-22T07:33:16.518Z,0.10
2018-12-22T07:34:16.434Z,0.10
2018-12-22T07:35:16.405Z,0.10
2018-12-22T07:36:16.318Z,0.10
2018-12-22T07:37:16.262Z,0.00
2018-12-22T07:38:16.239Z,0.10
2018-12-22T07:39:16.159Z,0.10
2018-12-22T07:40:16.104Z,0.10
2018-12-22T07:41:16.050Z,0.10
2018-12-22T07:42:15.998Z,0.10
2018-12-22T07:43:15.965Z,0.10
2018-12-22T07:44:15.885Z,0.10
2018-12-22T07:45:15.831Z,0.10
2018-12-22T07:46:15.787Z,0.10
2018-12-22T07:47:15.719Z,0.10
2018-12-22T07:48:15.693Z,0.10
2018-12-22T07:49:15.614Z,0.20
2018-12-22T07:50:15.560Z,0.00
2018-12-22T07:51:15.502Z,0.10
2018-12-22T07:52:15.457Z,0.10
2018-12-22T07:53:15.421Z,0.10
2018-12-22T07:54:15.340Z,0.20
2018-12-22T07:55:15.285Z,0.10
2018-12-22T07:56:15.238Z,0.10
2018-12-22T07:57:15.182Z,0.10
2018-12-22T07:58:15.147Z,0.20
2018-12-22T07:59:15.077Z,0.30
2018-12-22T08:00:15.033Z,0.10
2018-12-22T08:01:14.963Z,0.10
2018-12-22T08:02:14.909Z,0.40
2018-12-22T08:03:14.885Z,0.00
2018-12-22T08:04:14.799Z,0.10
2018-12-22T08:05:14.750Z,0.30
2018-12-22T08:06:14.688Z,0.00
2018-12-22T08:07:14.636Z,0.10
2018-12-22T08:08:14.600Z,0.10
2018-12-22T08:09:14.531Z,0.10
2018-12-22T08:10:14.474Z,0.20
2018-12-22T08:11:14.418Z,0.00
2018-12-22T08:12:14.372Z,0.10
2018-12-22T08:13:14.339Z,0.70
2018-12-22T08:14:14.256Z,0.10
2018-12-22T08:15:14.199Z,0.10
2018-12-22T08:16:14.151Z,0.10
2018-12-22T08:17:14.093Z,0.10
2018-12-22T08:18:14.067Z,0.10
2018-12-22T08:19:13.983Z,0.10
2018-12-22T08:20:13.928Z,0.10
2018-12-22T08:21:13.904Z,0.10
2018-12-22T08:22:13.836Z,0.10
2018-12-22T08:23:13.766Z,0.60
2018-12-22T08:24:13.742Z,0.10
2018-12-22T08:25:13.715Z,0.10
2018-12-22T08:26:13.604Z,0.10
2018-12-22T08:27:13.553Z,0.00
2018-12-22T08:28:13.499Z,0.10
2018-12-22T08:29:13.469Z,0.10
2018-12-22T08:30:13.386Z,0.00
2018-12-22T08:31:13.335Z,0.20
2018-12-22T08:32:13.279Z,0.10
2018-12-22T08:33:13.343Z,0.10
2018-12-22T08:34:13.198Z,0.10
2018-12-22T08:35:13.118Z,0.20
2018-12-22T08:36:13.062Z,0.20
2018-12-22T08:37:13.007Z,0.00
2018-12-22T08:38:12.954Z,0.20
2018-12-22T08:39:12.923Z,0.20
2018-12-22T08:40:12.846Z,0.10
2018-12-22T08:41:12.789Z,1.10
2018-12-22T08:42:12.850Z,0.10
2018-12-22T08:43:12.682Z,0.30
2018-12-22T08:44:12.649Z,0.10
2018-12-22T08:45:12.574Z,0.00
2018-12-22T08:46:12.521Z,0.20
2018-12-22T08:47:12.461Z,0.10
2018-12-22T08:48:12.410Z,0.10
2018-12-22T08:49:12.380Z,0.20
2018-12-22T08:50:12.300Z,0.10
2018-12-22T08:51:12.250Z,0.10
2018-12-22T08:52:12.188Z,0.10
2018-12-22T08:53:12.141Z,0.10
2018-12-22T08:54:12.106Z,0.30
2018-12-22T08:55:12.019Z,0.10
2018-12-22T08:56:11.972Z,0.10
2018-12-22T08:57:11.916Z,0.30
2018-12-22T08:58:11.859Z,0.10
2018-12-22T08:59:11.835Z,0.10
2018-12-22T09:00:11.752Z,0.10
2018-12-22T09:01:11.702Z,0.10
2018-12-22T09:02:11.637Z,0.10
2018-12-22T09:03:11.590Z,0.00
2018-12-22T09:04:11.559Z,0.10
2018-12-22T09:05:11.486Z,0.20
2018-12-22T09:06:11.423Z,0.10
2018-12-22T09:07:11.374Z,0.10
2018-12-22T09:08:11.317Z,0.10
2018-12-22T09:09:11.285Z,0.10
2018-12-22T09:10:11.448Z,0.10
2018-12-22T09:11:11.159Z,0.10
2018-12-22T09:12:11.106Z,0.10
2018-12-22T09:13:11.046Z,0.00
2018-12-22T09:14:11.022Z,0.10
2018-12-22T09:15:10.942Z,0.10
2018-12-22T09:16:10.883Z,0.10
2018-12-22T09:17:10.826Z,0.10
2018-12-22T09:18:10.778Z,0.20
2018-12-22T09:19:10.749Z,0.10
2018-12-22T09:20:10.664Z,0.10
2018-12-22T09:21:10.613Z,0.10
2018-12-22T09:22:10.553Z,0.20
2018-12-22T09:23:10.502Z,0.10
2018-12-22T09:24:10.443Z,0.60
2018-12-22T09:25:10.417Z,0.20
2018-12-22T09:26:10.340Z,0.00
2018-12-22T09:27:10.285Z,0.10
2018-12-22T09:28:10.228Z,0.10
2018-12-22T09:29:10.176Z,0.10
2018-12-22T09:30:10.141Z,0.20
2018-12-22T09:31:10.070Z,0.10
2018-12-22T09:32:10.011Z,0.10
2018-12-22T09:33:09.963Z,0.30
2018-12-22T09:34:13.543Z,0.00
2018-12-22T09:35:09.874Z,0.20
2018-12-22T09:36:09.793Z,0.10
2018-12-22T09:37:09.738Z,0.10
2018-12-22T09:38:09.688Z,0.20
2018-12-22T09:39:09.630Z,0.10
2018-12-22T09:40:09.602Z,0.10
2018-12-22T09:41:09.520Z,0.10
2018-12-22T09:42:09.466Z,0.10
2018-12-22T09:43:09.414Z,0.20
2018-12-22T09:44:09.358Z,0.10
2018-12-22T09:45:09.331Z,0.20
2018-12-22T09:46:09.254Z,0.10
2018-12-22T09:47:09.200Z,0.10
2018-12-22T09:48:09.145Z,0.10
2018-12-22T09:49:09.086Z,0.10
2018-12-22T09:50:09.055Z,0.10
2018-12-22T09:51:08.979Z,0.20
2018-12-22T09:52:08.928Z,0.10
2018-12-22T09:53:10.004Z,0.30
2018-12-22T09:54:08.812Z,0.20
2018-12-22T09:55:08.780Z,0.10
2018-12-22T09:56:08.708Z,0.20
2018-12-22T09:57:08.653Z,0.10
2018-12-22T09:58:08.599Z,0.10
2018-12-22T09:59:08.542Z,0.10
2018-12-22T10:00:08.511Z,0.10
2018-12-22T10:01:09.481Z,0.20
2018-12-22T10:02:09.029Z,3.10
2018-12-22T10:03:08.321Z,0.10
2018-12-22T10:04:08.272Z,0.10
2018-12-22T10:05:08.241Z,0.40
2018-12-22T10:06:08.165Z,0.10
2018-12-22T10:07:08.108Z,0.10
2018-12-22T10:08:08.056Z,0.10
2018-12-22T10:09:08.000Z,0.90
2018-12-22T10:10:07.967Z,0.10
2018-12-22T10:11:07.910Z,0.40
2018-12-22T10:12:07.836Z,0.10
2018-12-22T10:13:07.780Z,0.10
2018-12-22T10:14:07.725Z,0.10
2018-12-22T10:15:07.671Z,0.10
2018-12-22T10:16:07.641Z,0.10
2018-12-22T10:17:07.563Z,0.10
2018-12-22T10:18:07.507Z,0.10
2018-12-22T10:19:07.455Z,0.20
2018-12-22T10:20:07.400Z,0.10
2018-12-22T10:21:07.370Z,0.10
2018-12-22T10:22:07.288Z,0.10
2018-12-22T10:23:07.235Z,0.40
2018-12-22T10:24:07.182Z,0.20
2018-12-22T10:25:07.128Z,0.10
2018-12-22T10:26:07.095Z,0.10
2018-12-22T10:27:07.015Z,0.10
2018-12-22T10:28:06.967Z,0.20
2018-12-22T10:29:06.914Z,0.20
2018-12-22T10:30:06.853Z,0.10
2018-12-22T10:31:06.823Z,0.20
2018-12-22T10:32:06.738Z,0.10
2018-12-22T10:33:06.692Z,0.10
2018-12-22T10:34:06.639Z,0.10
2018-12-22T10:35:06.582Z,0.10
2018-12-22T10:36:06.548Z,0.20
2018-12-22T10:37:06.476Z,0.10
2018-12-22T10:38:06.418Z,0.10
2018-12-22T10:39:06.364Z,0.20
2018-12-22T10:40:06.319Z,0.10
2018-12-22T10:41:06.292Z,0.10
2018-12-22T10:42:06.202Z,0.10
2018-12-22T10:43:06.146Z,0.10
2018-12-22T10:44:06.111Z,0.10
2018-12-22T10:45:06.039Z,0.10
2018-12-22T10:46:06.010Z,0.50
2018-12-22T10:47:05.928Z,0.10
2018-12-22T10:48:05.863Z,0.10
2018-12-22T10:49:05.825Z,0.10
2018-12-22T10:50:05.769Z,0.10
2018-12-22T10:51:05.739Z,0.10
2018-12-22T10:52:05.656Z,0.20
2018-12-22T10:53:05.609Z,0.00
2018-12-22T10:54:05.552Z,0.10
2018-12-22T10:55:05.496Z,0.20
2018-12-22T10:56:05.473Z,0.10
2018-12-22T10:57:05.395Z,0.10
2018-12-22T10:58:05.356Z,0.10
2018-12-22T10:59:05.325Z,0.10
2018-12-22T11:00:05.230Z,0.10
2018-12-22T11:01:05.191Z,0.10
2018-12-22T11:02:05.120Z,0.10
2018-12-22T11:03:05.063Z,0.10
2018-12-22T11:04:05.011Z,0.10
2018-12-22T11:05:04.960Z,0.10
2018-12-22T11:06:04.931Z,0.20
2018-12-22T11:07:04.849Z,0.10
2018-12-22T11:08:04.810Z,0.10
2018-12-22T11:09:04.745Z,0.10
2018-12-22T11:10:04.691Z,0.10
2018-12-22T11:11:04.669Z,0.10
2018-12-22T11:12:04.577Z,0.10
2018-12-22T11:13:04.531Z,0.20
2018-12-22T11:14:04.472Z,0.10
2018-12-22T11:15:04.417Z,0.10
2018-12-22T11:16:04.362Z,0.10
2018-12-22T11:17:04.335Z,0.00
2018-12-22T11:18:04.253Z,0.10
2018-12-22T11:19:04.210Z,0.10
2018-12-22T11:20:04.141Z,0.10
2018-12-22T11:21:04.163Z,0.10
2018-12-22T11:22:04.073Z,0.10
2018-12-22T11:23:03.979Z,0.10
2018-12-22T11:24:03.928Z,0.10
2018-12-22T11:25:03.863Z,0.10
2018-12-22T11:26:03.825Z,0.10
2018-12-22T11:27:03.799Z,1.30
2018-12-22T11:28:03.719Z,0.10
2018-12-22T11:29:03.665Z,0.30
2018-12-22T11:30:03.610Z,0.10
2018-12-22T11:31:03.559Z,0.20
2018-12-22T11:32:03.532Z,0.10
2018-12-22T11:33:03.470Z,0.10
2018-12-22T11:34:03.404Z,0.10
2018-12-22T11:35:03.354Z,0.10
2018-12-22T11:36:03.289Z,0.10
2018-12-22T11:37:03.259Z,0.10
2018-12-22T11:38:03.178Z,0.00
2018-12-22T11:39:03.128Z,0.10
2018-12-22T11:40:03.080Z,0.20
2018-12-22T11:41:03.023Z,0.10
2018-12-22T11:42:02.996Z,0.10
2018-12-22T11:43:02.905Z,0.10
2018-12-22T11:44:02.857Z,0.10
2018-12-22T11:45:02.805Z,3.10
2018-12-22T11:46:02.748Z,0.10
2018-12-22T11:47:02.718Z,0.10
2018-12-22T11:48:02.639Z,0.10
2018-12-22T11:49:02.589Z,0.10
2018-12-22T11:50:02.530Z,0.10
2018-12-22T11:51:02.487Z,0.10
2018-12-22T11:52:02.445Z,0.10
2018-12-22T11:53:02.375Z,0.20
2018-12-22T11:54:02.317Z,0.10
2018-12-22T11:55:02.268Z,0.60
2018-12-22T11:56:02.213Z,0.20
2018-12-22T11:57:02.200Z,0.00
2018-12-22T11:58:02.107Z,0.10
2018-12-22T11:59:02.047Z,0.10
2018-12-22T12:00:01.995Z,0.00
2018-12-22T12:01:01.949Z,0.10
2018-12-22T12:02:09.290Z,0.10
2018-12-22T12:03:01.839Z,0.10
2018-12-22T12:04:01.794Z,0.30
2018-12-22T12:05:01.732Z,0.10
2018-12-22T12:06:01.682Z,0.10
2018-12-22T12:07:01.671Z,0.10
2018-12-22T12:08:01.575Z,0.00
2018-12-22T12:09:01.521Z,0.10
2018-12-22T12:10:01.468Z,0.10
2018-12-22T12:11:01.408Z,0.00
2018-12-22T12:12:01.356Z,0.10
2018-12-22T12:13:01.337Z,0.10
2018-12-22T12:14:01.254Z,0.00
2018-12-22T12:15:01.203Z,0.20
2018-12-22T12:16:01.147Z,0.10
2018-12-22T12:17:01.092Z,0.10
2018-12-22T12:18:01.065Z,0.10
2018-12-22T12:19:00.987Z,0.10
2018-12-22T12:20:00.938Z,0.10
2018-12-22T12:21:00.881Z,0.10
2018-12-22T12:22:00.821Z,0.00
2018-12-22T12:23:00.799Z,0.20
2018-12-22T12:24:00.719Z,0.10
2018-12-22T12:25:00.664Z,0.10
2018-12-22T12:26:00.616Z,0.10
2018-12-22T12:27:00.561Z,0.10
2018-12-22T12:28:00.530Z,0.10
2018-12-22T12:29:00.447Z,0.10
2018-12-22T12:30:00.394Z,0.10
2018-12-22T12:31:00.343Z,0.10
2018-12-22T12:32:00.314Z,0.10
2018-12-22T12:33:00.264Z,0.10
2018-12-22T12:34:00.181Z,0.10
2018-12-22T12:35:00.158Z,0.20
2018-12-22T12:36:00.074Z,0.00
2018-12-22T12:37:00.023Z,0.10
2018-12-22T12:37:59.998Z,0.20
2018-12-22T12:38:59.915Z,0.10
2018-12-22T12:39:59.865Z,0.20
2018-12-22T12:40:59.810Z,0.10
2018-12-22T12:41:59.761Z,0.00
2018-12-22T12:42:59.732Z,0.10
2018-12-22T12:43:59.656Z,0.20
2018-12-22T12:44:59.598Z,0.50
2018-12-22T12:45:59.546Z,0.30
2018-12-22T12:46:59.491Z,0.10
2018-12-22T12:47:59.462Z,0.10
2018-12-22T12:48:59.386Z,0.10
2018-12-22T12:49:59.337Z,0.10
2018-12-22T12:50:59.283Z,0.10
2018-12-22T12:51:59.226Z,0.10
2018-12-22T12:52:59.208Z,0.10
2018-12-22T12:53:59.118Z,0.10
2018-12-22T12:54:59.067Z,0.10
2018-12-22T12:55:59.043Z,0.00
2018-12-22T12:56:59.033Z,0.10
2018-12-22T12:57:58.898Z,0.10
2018-12-22T12:58:58.875Z,0.10
2018-12-22T12:59:58.787Z,0.20
2018-12-22T13:00:58.796Z,0.10
2018-12-22T13:02:01.294Z,0.10
2018-12-22T13:02:58.628Z,0.20
2018-12-22T13:03:58.640Z,0.00
2018-12-22T13:04:58.537Z,0.10
2018-12-22T13:05:58.481Z,0.10
2018-12-22T13:06:58.425Z,0.10